Skravig — FAD5199 — position and weather

sailwx.info

Track history (hours):
 
Tides and Currents Weather Stations Pressure Air Temp Water Temp Dewpoint Dewpoint Depression Visibility Wind Speed Wind Dir Waves Ship Positions

Skravig

Last reported at 2017-Sep-21 13:14 UTC. Time now 2017-Sep-23 04:13 UTC.
Position N 48°23' W 004°30'.

Length 13 m.

Type: Dredging. MMSI: 227401470.

Date/timePositionNaut miles runAvg speedWind from/ knotsBaromVisibWave heightAir tempDewpointWater temp
2017-Sep-21 13:14N 48°23' W 004°30'1 6.4
2017-Sep-21 13:00N 48°21' W 004°29'3 4.1
2017-Sep-21 12:18N 48°19' W 004°30'0 0.0
2017-Sep-21 12:00N 48°19' W 004°30'0 0.0
2017-Sep-21 11:30N 48°19' W 004°30'0 0.0
2017-Sep-21 11:00N 48°19' W 004°30'0 0.0
2017-Sep-21 10:30N 48°19' W 004°30'0 0.0
2017-Sep-21 10:00N 48°19' W 004°30'0 0.0
2017-Sep-21 09:30N 48°19' W 004°30'0 0.0
2017-Sep-21 09:00N 48°19' W 004°30'0 0.0
2017-Sep-21 08:30N 48°19' W 004°30'0 0.0
2017-Sep-21 08:00N 48°19' W 004°30'0 0.0
2017-Sep-21 07:30N 48°19' W 004°30'0 0.3
2017-Sep-21 07:00N 48°18' W 004°30'1 2.1
2017-Sep-21 06:30N 48°20' W 004°30'3 6.6
2017-Sep-21 06:00N 48°23' W 004°30'0 0.0
2017-Sep-20 12:04N 48°23' W 004°30'0 0.2
2017-Sep-20 12:00N 48°23' W 004°30'4 8.7
2017-Sep-20 11:30N 48°18' W 004°30'0 0.2
2017-Sep-20 10:48N 48°19' W 004°30'0 0.0
2017-Sep-20 10:30N 48°19' W 004°30'0 0.0
2017-Sep-20 09:48N 48°19' W 004°30'0 0.0
2017-Sep-20 08:54N 48°19' W 004°30'0 0.0
2017-Sep-20 07:51N 48°19' W 004°30'0 0.0
2017-Sep-20 07:18N 48°19' W 004°30'0 0.8
2017-Sep-20 07:00N 48°18' W 004°30'0 0.8
2017-Sep-20 06:30N 48°18' W 004°30'5 9.1
2017-Sep-20 06:00N 48°23' W 004°30'0 0.0
2017-Sep-19 11:04N 48°23' W 004°30'0 0.7
2017-Sep-19 11:00N 48°23' W 004°30'0 0.5
2017-Sep-19 10:28N 48°23' W 004°30'0 0.0
2017-Sep-19 09:58N 48°23' W 004°30'0 0.0
2017-Sep-19 09:28N 48°23' W 004°30'0 0.0
2017-Sep-19 08:58N 48°23' W 004°30'0 0.0
2017-Sep-19 08:28N 48°23' W 004°30'0 0.0
2017-Sep-19 07:58N 48°23' W 004°30'0 0.6
2017-Sep-19 07:29N 48°23' W 004°30'0 0.0
2017-Sep-18 11:28N 48°23' W 004°30'0 0.0
2017-Sep-18 10:58N 48°23' W 004°30'0 0.0
2017-Sep-18 10:28N 48°23' W 004°30'0 0.8
2017-Sep-18 09:59N 48°23' W 004°29'0 0.0
2017-Sep-18 09:29N 48°23' W 004°29'1 2.6
2017-Sep-18 09:00N 48°21' W 004°29'3 5.8
2017-Sep-18 08:28N 48°18' W 004°30'0 0.4
2017-Sep-18 07:59N 48°19' W 004°30'0 0.0
2017-Sep-18 07:29N 48°19' W 004°30'0 0.1
2017-Sep-18 07:00N 48°18' W 004°30'1 1.8
2017-Sep-18 06:30N 48°18' W 004°31'4 7.5
2017-Sep-18 06:00N 48°21' W 004°29'  
2017-Sep-15 11:22N 48°23' W 004°30'2 6.6
2017-Sep-15 11:00N 48°20' W 004°29'2 4.0
2017-Sep-15 10:30N 48°19' W 004°30'0 0.0
2017-Sep-15 09:57N 48°19' W 004°30'0 0.0
2017-Sep-15 09:30N 48°19' W 004°30'0 0.0
2017-Sep-15 09:00N 48°19' W 004°30'0 0.0
2017-Sep-15 08:30N 48°19' W 004°30'0 0.0
2017-Sep-15 08:00N 48°19' W 004°30'0 0.0
2017-Sep-15 07:30N 48°19' W 004°30'0 0.6
2017-Sep-15 07:00N 48°18' W 004°30'0 0.1
2017-Sep-15 06:30N 48°18' W 004°30'5 9.3
2017-Sep-15 06:00N 48°23' W 004°30'0 0.0
2017-Sep-14 11:17N 48°23' W 004°30'2 6.5
2017-Sep-14 11:00N 48°21' W 004°29'3 5.1
2017-Sep-14 10:30N 48°19' W 004°29'0 0.0
2017-Sep-14 10:01N 48°19' W 004°29'0 0.0
2017-Sep-14 09:28N 48°19' W 004°29'1 1.1
2017-Sep-14 09:00N 48°18' W 004°30'0 0.5
2017-Sep-14 08:30N 48°19' W 004°30'0 0.0
2017-Sep-14 08:00N 48°19' W 004°30'0 0.0
2017-Sep-14 07:30N 48°19' W 004°30'0 0.0
2017-Sep-14 07:00N 48°19' W 004°30'1 1.8
2017-Sep-14 06:27N 48°18' W 004°31'3 6.6
2017-Sep-14 06:00N 48°21' W 004°29'2 0.1
2017-Sep-13 11:54N 48°23' W 004°30'3 7.9
2017-Sep-13 11:30N 48°20' W 004°29'1 2.1
2017-Sep-13 10:58N 48°19' W 004°30'0 0.0
2017-Sep-13 10:28N 48°19' W 004°30'0 0.0
2017-Sep-13 09:55N 48°19' W 004°30'0 0.0
2017-Sep-13 09:28N 48°19' W 004°30'0 0.1
2017-Sep-13 09:00N 48°19' W 004°30'0 0.1
2017-Sep-13 08:30N 48°19' W 004°30'0 0.1
2017-Sep-13 07:58N 48°19' W 004°30'0 0.0
2017-Sep-13 07:28N 48°19' W 004°30'1 2.2
2017-Sep-13 07:00N 48°18' W 004°31'2 3.5
2017-Sep-13 06:30N 48°19' W 004°29'4 7.3
2017-Sep-13 06:00N 48°23' W 004°30'0 0.0
2017-Sep-12 11:56N 48°23' W 004°30'3 7.9
2017-Sep-12 11:30N 48°19' W 004°30'1 1.7
2017-Sep-12 10:58N 48°19' W 004°30'0 0.0
2017-Sep-12 10:28N 48°19' W 004°30'0 0.0
2017-Sep-12 09:58N 48°19' W 004°30'0 0.0
2017-Sep-12 09:28N 48°19' W 004°30'0 0.0
2017-Sep-12 08:58N 48°19' W 004°30'0 0.0
2017-Sep-12 08:28N 48°19' W 004°30'0 0.0
2017-Sep-12 07:59N 48°19' W 004°30'0 0.0
2017-Sep-12 07:28N 48°19' W 004°30'0 0.0
2017-Sep-12 06:58N 48°19' W 004°30'1 1.5
2017-Sep-12 06:30N 48°18' W 004°30'5 9.5
2017-Sep-12 06:00N 48°23' W 004°30'  
Track history (hours):
 
Tides and Currents Weather Stations Pressure Air Temp Water Temp Dewpoint Dewpoint Depression Visibility Wind Speed Wind Dir Waves Ship Positions

Skravig

Last reported at 2017-Sep-21 13:14 UTC. Time now 2017-Sep-23 04:13 UTC.
Position N 48°23' W 004°30'.

Length 13 m.

Type: Dredging. MMSI: 227401470.

Date/timePositionNaut miles runAvg speedWind from/ knotsBaromVisibWave heightAir tempDewpointWater temp
2017-Sep-21 13:14N 48°23' W 004°30'1 6.4
2017-Sep-21 13:00N 48°21' W 004°29'3 4.1
2017-Sep-21 12:18N 48°19' W 004°30'0 0.0
2017-Sep-21 12:00N 48°19' W 004°30'0 0.0
2017-Sep-21 11:30N 48°19' W 004°30'0 0.0
2017-Sep-21 11:00N 48°19' W 004°30'0 0.0
2017-Sep-21 10:30N 48°19' W 004°30'0 0.0
2017-Sep-21 10:00N 48°19' W 004°30'0 0.0
2017-Sep-21 09:30N 48°19' W 004°30'0 0.0
2017-Sep-21 09:00N 48°19' W 004°30'0 0.0
2017-Sep-21 08:30N 48°19' W 004°30'0 0.0
2017-Sep-21 08:00N 48°19' W 004°30'0 0.0
2017-Sep-21 07:30N 48°19' W 004°30'0 0.3
2017-Sep-21 07:00N 48°18' W 004°30'1 2.1
2017-Sep-21 06:30N 48°20' W 004°30'3 6.6
2017-Sep-21 06:00N 48°23' W 004°30'0 0.0
2017-Sep-20 12:04N 48°23' W 004°30'0 0.2
2017-Sep-20 12:00N 48°23' W 004°30'4 8.7
2017-Sep-20 11:30N 48°18' W 004°30'0 0.2
2017-Sep-20 10:48N 48°19' W 004°30'0 0.0
2017-Sep-20 10:30N 48°19' W 004°30'0 0.0
2017-Sep-20 09:48N 48°19' W 004°30'0 0.0
2017-Sep-20 08:54N 48°19' W 004°30'0 0.0
2017-Sep-20 07:51N 48°19' W 004°30'0 0.0
2017-Sep-20 07:18N 48°19' W 004°30'0 0.8
2017-Sep-20 07:00N 48°18' W 004°30'0 0.8
2017-Sep-20 06:30N 48°18' W 004°30'5 9.1
2017-Sep-20 06:00N 48°23' W 004°30'0 0.0
2017-Sep-19 11:04N 48°23' W 004°30'0 0.7
2017-Sep-19 11:00N 48°23' W 004°30'0 0.5
2017-Sep-19 10:28N 48°23' W 004°30'0 0.0
2017-Sep-19 09:58N 48°23' W 004°30'0 0.0
2017-Sep-19 09:28N 48°23' W 004°30'0 0.0
2017-Sep-19 08:58N 48°23' W 004°30'0 0.0
2017-Sep-19 08:28N 48°23' W 004°30'0 0.0
2017-Sep-19 07:58N 48°23' W 004°30'0 0.6
2017-Sep-19 07:29N 48°23' W 004°30'0 0.0
2017-Sep-18 11:28N 48°23' W 004°30'0 0.0
2017-Sep-18 10:58N 48°23' W 004°30'0 0.0
2017-Sep-18 10:28N 48°23' W 004°30'0 0.8
2017-Sep-18 09:59N 48°23' W 004°29'0 0.0
2017-Sep-18 09:29N 48°23' W 004°29'1 2.6
2017-Sep-18 09:00N 48°21' W 004°29'3 5.8
2017-Sep-18 08:28N 48°18' W 004°30'0 0.4
2017-Sep-18 07:59N 48°19' W 004°30'0 0.0
2017-Sep-18 07:29N 48°19' W 004°30'0 0.1
2017-Sep-18 07:00N 48°18' W 004°30'1 1.8
2017-Sep-18 06:30N 48°18' W 004°31'4 7.5
2017-Sep-18 06:00N 48°21' W 004°29'  
2017-Sep-15 11:22N 48°23' W 004°30'2 6.6
2017-Sep-15 11:00N 48°20' W 004°29'2 4.0
2017-Sep-15 10:30N 48°19' W 004°30'0 0.0
2017-Sep-15 09:57N 48°19' W 004°30'0 0.0
2017-Sep-15 09:30N 48°19' W 004°30'0 0.0
2017-Sep-15 09:00N 48°19' W 004°30'0 0.0
2017-Sep-15 08:30N 48°19' W 004°30'0 0.0
2017-Sep-15 08:00N 48°19' W 004°30'0 0.0
2017-Sep-15 07:30N 48°19' W 004°30'0 0.6
2017-Sep-15 07:00N 48°18' W 004°30'0 0.1
2017-Sep-15 06:30N 48°18' W 004°30'5 9.3
2017-Sep-15 06:00N 48°23' W 004°30'0 0.0
2017-Sep-14 11:17N 48°23' W 004°30'2 6.5
2017-Sep-14 11:00N 48°21' W 004°29'3 5.1
2017-Sep-14 10:30N 48°19' W 004°29'0 0.0
2017-Sep-14 10:01N 48°19' W 004°29'0 0.0
2017-Sep-14 09:28N 48°19' W 004°29'1 1.1
2017-Sep-14 09:00N 48°18' W 004°30'0 0.5
2017-Sep-14 08:30N 48°19' W 004°30'0 0.0
2017-Sep-14 08:00N 48°19' W 004°30'0 0.0
2017-Sep-14 07:30N 48°19' W 004°30'0 0.0
2017-Sep-14 07:00N 48°19' W 004°30'1 1.8
2017-Sep-14 06:27N 48°18' W 004°31'3 6.6
2017-Sep-14 06:00N 48°21' W 004°29'2 0.1
2017-Sep-13 11:54N 48°23' W 004°30'3 7.9
2017-Sep-13 11:30N 48°20' W 004°29'1 2.1
2017-Sep-13 10:58N 48°19' W 004°30'0 0.0
2017-Sep-13 10:28N 48°19' W 004°30'0 0.0
2017-Sep-13 09:55N 48°19' W 004°30'0 0.0
2017-Sep-13 09:28N 48°19' W 004°30'0 0.1
2017-Sep-13 09:00N 48°19' W 004°30'0 0.1
2017-Sep-13 08:30N 48°19' W 004°30'0 0.1
2017-Sep-13 07:58N 48°19' W 004°30'0 0.0
2017-Sep-13 07:28N 48°19' W 004°30'1 2.2
2017-Sep-13 07:00N 48°18' W 004°31'2 3.5
2017-Sep-13 06:30N 48°19' W 004°29'4 7.3
2017-Sep-13 06:00N 48°23' W 004°30'0 0.0
2017-Sep-12 11:56N 48°23' W 004°30'3 7.9
2017-Sep-12 11:30N 48°19' W 004°30'1 1.7
2017-Sep-12 10:58N 48°19' W 004°30'0 0.0
2017-Sep-12 10:28N 48°19' W 004°30'0 0.0
2017-Sep-12 09:58N 48°19' W 004°30'0 0.0
2017-Sep-12 09:28N 48°19' W 004°30'0 0.0
2017-Sep-12 08:58N 48°19' W 004°30'0 0.0
2017-Sep-12 08:28N 48°19' W 004°30'0 0.0
2017-Sep-12 07:59N 48°19' W 004°30'0 0.0
2017-Sep-12 07:28N 48°19' W 004°30'0 0.0
2017-Sep-12 06:58N 48°19' W 004°30'1 1.5
2017-Sep-12 06:30N 48°18' W 004°30'5 9.5
2017-Sep-12 06:00N 48°23' W 004°30'  

Dump ship's entire track history